createdAt,value
2023-02-17T00:01:39.752Z,41.97
2023-02-17T00:04:12.250Z,41.75
2023-02-17T00:06:41.349Z,38.80
2023-02-17T00:09:09.770Z,41.97
2023-02-17T00:11:38.164Z,40.92
2023-02-17T00:14:06.463Z,39.10
2023-02-17T00:16:34.877Z,36.65
2023-02-17T00:19:25.063Z,35.00
2023-02-17T00:21:58.251Z,40.88
2023-02-17T00:24:28.976Z,38.90
2023-02-17T00:27:03.294Z,39.33
2023-02-17T00:29:31.632Z,41.00
2023-02-17T00:32:00.345Z,43.15
2023-02-17T00:35:10.435Z,37.60
2023-02-17T00:37:40.666Z,42.55
2023-02-17T00:40:12.802Z,38.10
2023-02-17T00:42:41.276Z,47.92
2023-02-17T00:45:10.639Z,43.85
2023-02-17T00:47:38.928Z,42.28
2023-02-17T00:50:08.862Z,45.17
2023-02-17T00:52:37.286Z,36.95
2023-02-17T00:55:07.942Z,45.45
2023-02-17T00:57:36.330Z,47.55
2023-02-17T01:00:06.442Z,48.08
2023-02-17T01:02:35.018Z,49.35
2023-02-17T01:05:03.405Z,47.50
2023-02-17T01:07:31.873Z,47.00
2023-02-17T01:10:00.764Z,48.10
2023-02-17T01:12:30.472Z,42.33
2023-02-17T01:14:58.955Z,46.13
2023-02-17T01:17:27.243Z,47.88
2023-02-17T01:19:58.410Z,43.95
2023-02-17T01:22:27.062Z,46.40
2023-02-17T01:24:58.373Z,43.08
2023-02-17T01:27:26.798Z,43.95
2023-02-17T01:29:56.792Z,49.95
2023-02-17T01:32:24.989Z,46.35
2023-02-17T01:34:53.168Z,44.08
2023-02-17T01:37:22.117Z,46.42
2023-02-17T01:39:50.356Z,47.42
2023-02-17T01:42:22.043Z,49.05
2023-02-17T01:45:40.061Z,47.42
2023-02-17T01:48:14.314Z,45.13
2023-02-17T01:51:03.013Z,48.35
2023-02-17T01:53:38.730Z,50.50
2023-02-17T01:56:10.220Z,48.38
2023-02-17T01:58:42.562Z,50.65
2023-02-17T02:01:13.044Z,50.78
2023-02-17T02:03:41.737Z,46.10
2023-02-17T02:06:15.276Z,50.15
2023-02-17T02:08:52.381Z,48.05
2023-02-17T02:11:20.729Z,46.90
2023-02-17T02:13:49.409Z,43.92
2023-02-17T02:16:25.958Z,53.00
2023-02-17T02:19:02.187Z,50.95
2023-02-17T02:22:03.378Z,50.50
2023-02-17T02:24:48.282Z,51.17
2023-02-17T02:27:32.364Z,50.40
2023-02-17T02:30:45.245Z,48.00
2023-02-17T02:33:25.643Z,47.53
2023-02-17T02:36:05.664Z,39.00
2023-02-17T02:38:42.690Z,40.13
2023-02-17T02:41:15.237Z,40.47
2023-02-17T02:43:45.056Z,40.58
2023-02-17T02:46:13.383Z,41.13
2023-02-17T02:48:43.852Z,41.88
2023-02-17T02:51:31.151Z,47.60
2023-02-17T02:54:23.569Z,48.95
2023-02-17T02:57:32.746Z,45.08
2023-02-17T03:00:14.770Z,46.45
2023-02-17T03:02:52.654Z,44.47
2023-02-17T03:05:47.939Z,47.47
2023-02-17T03:08:20.678Z,43.75
2023-02-17T03:10:51.052Z,48.85
2023-02-17T03:13:21.068Z,45.00
2023-02-17T03:15:50.552Z,41.58
2023-02-17T03:18:19.051Z,43.50
2023-02-17T03:21:01.399Z,44.88
2023-02-17T03:23:29.627Z,43.35
2023-02-17T03:25:59.582Z,39.65
2023-02-17T03:28:28.168Z,35.97
2023-02-17T03:30:56.779Z,43.88
2023-02-17T03:33:27.113Z,35.03
2023-02-17T03:35:57.332Z,35.30
2023-02-17T03:38:25.766Z,37.50
2023-02-17T03:40:56.389Z,38.28
2023-02-17T03:43:24.583Z,33.85
2023-02-17T03:45:52.816Z,32.47
2023-02-17T03:48:21.416Z,33.95
2023-02-17T03:50:51.171Z,34.58
2023-02-17T03:53:20.975Z,36.25
2023-02-17T03:55:49.588Z,32.83
2023-02-17T03:58:19.864Z,32.28
2023-02-17T04:00:48.056Z,34.13
2023-02-17T04:03:16.342Z,36.72
2023-02-17T04:05:50.334Z,34.30
2023-02-17T04:08:20.497Z,37.92
2023-02-17T04:10:53.087Z,35.08
2023-02-17T04:13:21.786Z,33.10
2023-02-17T04:15:51.002Z,37.63
2023-02-17T04:18:19.901Z,34.72
2023-02-17T04:20:54.589Z,37.45
2023-02-17T04:23:24.617Z,36.33
2023-02-17T04:26:06.098Z,36.63
2023-02-17T04:28:34.722Z,37.05
2023-02-17T04:31:03.195Z,39.33
2023-02-17T04:33:34.675Z,37.22
2023-02-17T04:36:03.516Z,35.58
2023-02-17T04:38:34.550Z,39.17
2023-02-17T04:41:03.414Z,36.30
2023-02-17T04:43:31.970Z,39.13
2023-02-17T04:46:00.827Z,35.28
2023-02-17T04:48:29.491Z,37.17
2023-02-17T04:50:59.610Z,40.17
2023-02-17T04:53:27.777Z,36.60
2023-02-17T04:56:00.169Z,40.92
2023-02-17T04:58:28.583Z,38.67
2023-02-17T05:01:01.215Z,35.13
2023-02-17T05:03:29.761Z,40.70
2023-02-17T05:05:58.540Z,40.03
2023-02-17T05:08:28.585Z,39.45
2023-02-17T05:11:00.957Z,46.53
2023-02-17T05:13:29.167Z,36.25
2023-02-17T05:16:00.966Z,35.60
2023-02-17T05:18:29.939Z,36.53
2023-02-17T05:20:58.517Z,44.08
2023-02-17T05:23:27.255Z,41.08
2023-02-17T05:25:57.293Z,44.58
2023-02-17T05:28:25.479Z,39.72
2023-02-17T05:30:53.795Z,40.13
2023-02-17T05:33:23.835Z,38.13
2023-02-17T05:35:52.129Z,40.15
2023-02-17T05:38:20.498Z,41.45
2023-02-17T05:40:48.808Z,35.05
2023-02-17T05:43:19.065Z,39.55
2023-02-17T05:45:47.601Z,35.15
2023-02-17T05:48:16.038Z,37.85
2023-02-17T05:50:53.081Z,34.67
2023-02-17T05:53:21.419Z,33.63
2023-02-17T05:55:49.628Z,38.28
2023-02-17T05:58:19.252Z,40.78
2023-02-17T06:00:47.845Z,39.67
2023-02-17T06:03:16.424Z,44.38
2023-02-17T06:05:50.289Z,39.53
2023-02-17T06:08:18.770Z,41.50
2023-02-17T06:10:47.226Z,38.15
2023-02-17T06:13:35.714Z,40.80
2023-02-17T06:16:04.158Z,34.20
2023-02-17T06:18:32.449Z,36.20
2023-02-17T06:21:01.029Z,40.38
2023-02-17T06:23:29.593Z,33.58
2023-02-17T06:25:58.349Z,35.65
2023-02-17T06:28:29.373Z,32.50
2023-02-17T06:31:00.463Z,31.65
2023-02-17T06:33:29.113Z,30.58
2023-02-17T06:36:00.570Z,35.78
2023-02-17T06:38:28.950Z,32.42
2023-02-17T06:41:00.150Z,30.70
2023-02-17T06:43:30.696Z,31.15
2023-02-17T06:46:00.415Z,32.65
2023-02-17T06:48:28.780Z,31.42
2023-02-17T06:50:57.009Z,34.20
2023-02-17T06:53:25.275Z,29.80
2023-02-17T06:55:53.565Z,29.60
2023-02-17T06:58:21.802Z,32.05
2023-02-17T07:00:51.601Z,31.05
2023-02-17T07:03:20.131Z,26.08
2023-02-17T07:05:48.376Z,25.23
2023-02-17T07:08:18.548Z,25.52
2023-02-17T07:10:46.713Z,30.00
2023-02-17T07:13:14.971Z,26.88
2023-02-17T07:15:43.447Z,27.25
2023-02-17T07:18:13.076Z,26.50
2023-02-17T07:20:41.338Z,23.73
2023-02-17T07:23:09.815Z,30.15
2023-02-17T07:25:39.298Z,24.05
2023-02-17T07:28:09.650Z,27.25
2023-02-17T07:30:39.603Z,27.70
2023-02-17T07:33:08.264Z,23.75
2023-02-17T07:35:44.072Z,21.20
2023-02-17T07:38:13.031Z,24.85
2023-02-17T07:40:41.779Z,28.65
2023-02-17T07:43:10.854Z,22.02
2023-02-17T07:45:39.375Z,22.60
2023-02-17T07:48:07.796Z,23.70
2023-02-17T07:50:37.480Z,21.83
2023-02-17T07:53:05.709Z,21.55
2023-02-17T07:55:33.902Z,24.95
2023-02-17T07:58:02.080Z,23.20
2023-02-17T08:00:30.340Z,21.60
2023-02-17T08:02:58.610Z,22.58
2023-02-17T08:05:26.951Z,20.83
2023-02-17T08:08:13.031Z,18.35
2023-02-17T08:11:01.840Z,18.77
2023-02-17T08:13:30.038Z,18.00
2023-02-17T08:15:59.395Z,17.05
2023-02-17T08:18:29.152Z,16.95
2023-02-17T08:20:58.879Z,15.07
2023-02-17T08:23:30.396Z,16.52
2023-02-17T08:25:59.246Z,18.75
2023-02-17T08:28:27.512Z,16.02
2023-02-17T08:30:55.918Z,16.77
2023-02-17T08:33:24.249Z,16.60
2023-02-17T08:35:57.266Z,17.50
2023-02-17T08:38:29.745Z,16.73
2023-02-17T08:40:58.096Z,17.42
2023-02-17T08:43:26.392Z,14.82
2023-02-17T08:45:54.728Z,17.73
2023-02-17T08:48:23.072Z,19.13
2023-02-17T08:50:51.345Z,18.65
2023-02-17T08:53:19.685Z,17.60
2023-02-17T08:55:50.006Z,14.80
2023-02-17T08:58:20.390Z,17.75
2023-02-17T09:00:48.596Z,17.92
2023-02-17T09:03:17.110Z,16.55
2023-02-17T09:05:45.565Z,16.48
2023-02-17T09:08:13.878Z,15.50
2023-02-17T09:10:42.229Z,19.25
2023-02-17T09:13:11.991Z,17.40
2023-02-17T09:15:40.214Z,14.48
2023-02-17T09:18:08.510Z,16.50
2023-02-17T09:20:37.641Z,16.67
2023-02-17T09:23:05.892Z,18.48
2023-02-17T09:25:34.578Z,18.77
2023-02-17T09:28:02.860Z,15.77
2023-02-17T09:30:32.594Z,23.15
2023-02-17T09:33:01.544Z,17.55
2023-02-17T09:35:30.022Z,20.00
2023-02-17T09:37:58.285Z,17.77
2023-02-17T09:40:40.027Z,17.20
2023-02-17T09:43:13.889Z,16.60
2023-02-17T09:45:48.092Z,16.10
2023-02-17T09:48:20.284Z,13.05
2023-02-17T09:50:55.881Z,16.55
2023-02-17T09:53:31.054Z,17.65
2023-02-17T09:56:03.226Z,15.25
2023-02-17T09:58:37.531Z,16.27
2023-02-17T10:01:15.243Z,17.27
2023-02-17T10:03:47.229Z,18.02
2023-02-17T10:06:19.809Z,19.08
2023-02-17T10:08:53.879Z,17.20
2023-02-17T10:11:31.514Z,17.25
2023-02-17T10:14:04.673Z,14.82
2023-02-17T10:16:42.009Z,22.60
2023-02-17T10:19:16.642Z,17.15
2023-02-17T10:21:58.439Z,17.77
2023-02-17T10:24:26.962Z,19.98
2023-02-17T10:27:14.035Z,19.38
2023-02-17T10:29:52.737Z,19.50
2023-02-17T10:32:26.618Z,17.83
2023-02-17T10:35:16.654Z,18.50
2023-02-17T10:37:49.359Z,20.98
2023-02-17T10:40:28.029Z,22.83
2023-02-17T10:42:59.957Z,19.83
2023-02-17T10:45:33.218Z,18.35
2023-02-17T10:48:07.821Z,20.08
2023-02-17T10:50:38.088Z,21.85
2023-02-17T10:53:17.095Z,23.55
2023-02-17T10:55:56.933Z,22.10
2023-02-17T10:58:32.475Z,21.70
2023-02-17T11:01:02.733Z,22.00
2023-02-17T11:03:34.209Z,20.98
2023-02-17T11:06:05.698Z,18.67
2023-02-17T11:08:38.908Z,21.75
2023-02-17T11:11:18.130Z,20.67
2023-02-17T11:14:00.946Z,25.65
2023-02-17T11:16:35.103Z,21.08
2023-02-17T11:19:05.780Z,24.05
2023-02-17T11:21:36.265Z,23.25
2023-02-17T11:24:07.186Z,22.30
2023-02-17T11:26:37.247Z,20.33
2023-02-17T11:29:10.802Z,20.10
2023-02-17T11:31:40.763Z,23.63
2023-02-17T11:34:16.269Z,21.80
2023-02-17T11:37:00.102Z,17.60
2023-02-17T11:39:28.863Z,21.05
2023-02-17T11:42:00.926Z,17.45
2023-02-17T11:44:30.826Z,21.25
2023-02-17T11:47:12.648Z,17.30
2023-02-17T11:50:31.742Z,21.10
2023-02-17T11:53:22.078Z,21.98
2023-02-17T11:56:06.593Z,18.08
2023-02-17T11:59:01.448Z,16.88
2023-02-17T12:01:52.036Z,17.35
2023-02-17T12:04:28.287Z,18.30
2023-02-17T12:07:36.530Z,18.40
2023-02-17T12:10:12.828Z,17.15
2023-02-17T12:13:00.703Z,20.33
2023-02-17T12:15:44.930Z,19.02
2023-02-17T12:18:34.954Z,16.98
2023-02-17T12:21:10.945Z,18.88
2023-02-17T12:24:17.848Z,14.30
2023-02-17T12:26:54.686Z,17.30
2023-02-17T12:29:42.886Z,13.73
2023-02-17T12:32:39.863Z,12.90
2023-02-17T12:35:19.636Z,18.58
2023-02-17T12:37:57.012Z,13.50
2023-02-17T12:40:38.856Z,13.82
2023-02-17T12:43:24.100Z,14.40
2023-02-17T12:45:54.576Z,14.48
2023-02-17T12:48:31.251Z,17.52
2023-02-17T12:51:07.746Z,15.27
2023-02-17T12:53:47.047Z,14.45
2023-02-17T12:56:48.779Z,13.27
2023-02-17T12:59:21.307Z,14.55
2023-02-17T13:01:56.666Z,12.23
2023-02-17T13:04:28.603Z,11.85
2023-02-17T13:07:11.854Z,16.73
2023-02-17T13:09:42.870Z,17.67
2023-02-17T13:12:32.516Z,16.38
2023-02-17T13:15:03.910Z,15.77
2023-02-17T13:17:35.214Z,21.00
2023-02-17T13:20:28.795Z,13.95
2023-02-17T13:23:09.944Z,19.13
2023-02-17T13:25:39.105Z,21.77
2023-02-17T13:28:37.037Z,17.88
2023-02-17T13:31:18.827Z,17.88
2023-02-17T13:33:51.177Z,25.20
2023-02-17T13:36:36.562Z,17.13
2023-02-17T13:39:28.051Z,16.27
2023-02-17T13:41:58.942Z,17.45
2023-02-17T13:44:32.052Z,14.38
2023-02-17T13:47:03.175Z,14.38
2023-02-17T13:49:36.863Z,19.42
2023-02-17T13:52:19.989Z,14.25
2023-02-17T13:54:59.440Z,14.57
2023-02-17T13:57:30.338Z,17.73
2023-02-17T14:00:27.443Z,15.68
2023-02-17T14:03:01.473Z,19.60
2023-02-17T14:05:39.183Z,19.48
2023-02-17T14:08:18.913Z,14.32
2023-02-17T14:10:47.775Z,16.20
2023-02-17T14:13:16.386Z,14.52
2023-02-17T14:15:56.411Z,18.45
2023-02-17T14:18:36.028Z,17.90
2023-02-17T14:21:12.960Z,21.58
2023-02-17T14:23:50.631Z,16.55
2023-02-17T14:26:31.881Z,15.18
2023-02-17T14:29:02.696Z,17.08
2023-02-17T14:31:45.193Z,16.42
2023-02-17T14:34:27.097Z,21.70
2023-02-17T14:36:59.534Z,18.27
2023-02-17T14:39:27.787Z,14.55
2023-02-17T14:41:56.028Z,16.42
2023-02-17T14:44:24.370Z,18.95
2023-02-17T14:46:53.998Z,17.90
2023-02-17T14:49:22.294Z,19.60
2023-02-17T14:51:50.680Z,21.10
2023-02-17T14:54:20.534Z,17.52
2023-02-17T14:57:04.538Z,17.75
2023-02-17T14:59:33.274Z,22.27
2023-02-17T15:02:03.495Z,19.05
2023-02-17T15:04:31.847Z,17.85
2023-02-17T15:07:00.366Z,19.25
2023-02-17T15:09:33.254Z,18.17
2023-02-17T15:12:03.955Z,18.48
2023-02-17T15:14:32.152Z,18.13
2023-02-17T15:17:00.497Z,19.70
2023-02-17T15:19:30.110Z,21.90
2023-02-17T15:22:01.329Z,19.67
2023-02-17T15:24:34.075Z,20.92
2023-02-17T15:27:03.220Z,17.02
2023-02-17T15:29:31.518Z,23.80
2023-02-17T15:32:03.584Z,17.80
2023-02-17T15:34:34.715Z,16.15
2023-02-17T15:37:03.632Z,17.02
2023-02-17T15:39:31.886Z,16.17
2023-02-17T15:42:08.261Z,21.08
2023-02-17T15:44:43.169Z,19.05
2023-02-17T15:47:17.799Z,19.00
2023-02-17T15:49:47.785Z,17.42
2023-02-17T15:52:16.802Z,16.42
2023-02-17T15:54:46.289Z,24.77
2023-02-17T15:57:23.688Z,17.83
2023-02-17T15:59:54.972Z,22.00
2023-02-17T16:02:26.276Z,17.95
2023-02-17T16:04:55.935Z,16.80
2023-02-17T16:10:09.002Z,18.88
2023-02-17T16:12:40.555Z,19.42
2023-02-17T16:15:15.712Z,20.15
2023-02-17T16:17:45.075Z,18.88
2023-02-17T16:20:20.756Z,17.92
2023-02-17T16:22:49.551Z,21.95
2023-02-17T16:25:23.737Z,19.52
2023-02-17T16:27:57.944Z,22.42
2023-02-17T16:30:34.372Z,20.35
2023-02-17T16:33:08.710Z,19.27
2023-02-17T16:35:44.510Z,21.52
2023-02-17T16:38:22.716Z,24.02
2023-02-17T16:40:54.904Z,23.00
2023-02-17T16:43:27.717Z,23.38
2023-02-17T16:45:58.528Z,23.55
2023-02-17T16:48:36.444Z,23.27
2023-02-17T16:51:06.763Z,20.08
2023-02-17T16:53:35.209Z,21.00
2023-02-17T16:56:18.378Z,22.30
2023-02-17T16:58:46.843Z,26.75
2023-02-17T17:01:15.806Z,26.38
2023-02-17T17:03:51.813Z,21.38
2023-02-17T17:06:26.127Z,22.05
2023-02-17T17:08:55.012Z,17.30
2023-02-17T17:11:26.341Z,26.58
2023-02-17T17:13:55.519Z,22.08
2023-02-17T17:16:28.764Z,25.42
2023-02-17T17:18:58.608Z,24.77
2023-02-17T17:21:28.650Z,23.58
2023-02-17T17:24:00.404Z,23.35
2023-02-17T17:26:33.999Z,20.73
2023-02-17T17:29:02.461Z,25.42
2023-02-17T17:31:30.932Z,25.30
2023-02-17T17:36:56.191Z,24.00
2023-02-17T17:39:25.602Z,28.80
2023-02-17T17:41:56.012Z,20.25
2023-02-17T17:44:24.570Z,22.67
2023-02-17T17:46:53.255Z,21.15
2023-02-17T17:49:22.267Z,17.85
2023-02-17T17:51:52.109Z,25.25
2023-02-17T17:54:22.474Z,23.95
2023-02-17T17:56:52.784Z,22.92
2023-02-17T17:59:21.425Z,23.77
2023-02-17T18:01:50.158Z,18.98
2023-02-17T18:04:18.999Z,22.58
2023-02-17T18:06:51.901Z,20.58
2023-02-17T18:09:31.611Z,22.52
2023-02-17T18:12:06.319Z,23.67
2023-02-17T18:14:39.308Z,25.65
2023-02-17T18:20:06.406Z,27.08
2023-02-17T18:22:42.979Z,22.73
2023-02-17T18:25:13.871Z,19.95
2023-02-17T18:27:46.344Z,23.85
2023-02-17T18:30:20.785Z,32.85
2023-02-17T18:32:50.532Z,27.48
2023-02-17T18:35:20.570Z,28.00
2023-02-17T18:37:52.540Z,26.80
2023-02-17T18:40:26.438Z,22.45
2023-02-17T18:42:57.366Z,25.05
2023-02-17T18:45:31.734Z,23.48
2023-02-17T18:48:00.760Z,27.70
2023-02-17T18:50:33.163Z,25.13
2023-02-17T18:53:05.172Z,28.17
2023-02-17T18:55:39.069Z,29.73
2023-02-17T18:58:12.468Z,23.52
2023-02-17T19:00:41.001Z,29.27
2023-02-17T19:03:10.044Z,23.33
2023-02-17T19:05:38.479Z,26.70
2023-02-17T19:08:11.222Z,31.45
2023-02-17T19:10:41.419Z,27.73
2023-02-17T19:13:10.274Z,29.17
2023-02-17T19:15:39.058Z,27.77
2023-02-17T19:18:08.329Z,24.40
2023-02-17T19:20:36.956Z,28.65
2023-02-17T19:23:05.504Z,27.25
2023-02-17T19:25:34.175Z,23.30
2023-02-17T19:28:04.128Z,34.58
2023-02-17T19:30:32.347Z,27.88
2023-02-17T19:33:01.091Z,27.90
2023-02-17T19:35:31.504Z,27.80
2023-02-17T19:37:59.802Z,24.52
2023-02-17T19:40:28.418Z,28.35
2023-02-17T19:43:01.233Z,32.40
2023-02-17T19:45:32.134Z,25.85
2023-02-17T19:48:00.381Z,29.35
2023-02-17T19:50:29.342Z,26.75
2023-02-17T19:53:00.705Z,29.23
2023-02-17T19:55:28.979Z,32.25
2023-02-17T19:58:03.362Z,31.02
2023-02-17T20:00:33.304Z,32.22
2023-02-17T20:03:01.790Z,32.65
2023-02-17T20:05:33.029Z,34.50
2023-02-17T20:08:03.173Z,35.78
2023-02-17T20:10:31.644Z,33.50
2023-02-17T20:13:00.129Z,28.70
2023-02-17T20:15:28.721Z,38.15
2023-02-17T20:17:58.360Z,45.92
2023-02-17T20:20:26.613Z,36.65
2023-02-17T20:22:54.904Z,47.20
2023-02-17T20:25:23.286Z,42.78
2023-02-17T20:27:55.252Z,40.88
2023-02-17T20:30:23.862Z,40.30
2023-02-17T20:32:52.130Z,41.25
2023-02-17T20:35:22.183Z,41.88
2023-02-17T20:37:50.624Z,42.00
2023-02-17T20:40:19.449Z,42.38
2023-02-17T20:42:48.150Z,43.03
2023-02-17T20:45:20.609Z,44.25
2023-02-17T20:47:49.021Z,45.20
2023-02-17T20:50:20.280Z,45.95
2023-02-17T20:52:52.595Z,45.97
2023-02-17T20:55:21.728Z,37.38
2023-02-17T20:57:50.814Z,45.33
2023-02-17T21:00:23.133Z,50.13
2023-02-17T21:02:52.382Z,43.85
2023-02-17T21:05:21.669Z,37.28
2023-02-17T21:07:52.415Z,46.88
2023-02-17T21:10:48.974Z,40.80
2023-02-17T21:13:24.596Z,44.72
2023-02-17T21:16:04.793Z,39.22
2023-02-17T21:18:34.221Z,51.28
2023-02-17T21:21:29.586Z,45.13
2023-02-17T21:24:30.229Z,41.10
2023-02-17T21:27:01.987Z,42.75
2023-02-17T21:29:31.254Z,44.45
2023-02-17T21:32:03.287Z,46.47
2023-02-17T21:34:38.004Z,43.28
2023-02-17T21:37:08.335Z,37.92
2023-02-17T21:39:40.016Z,42.78
2023-02-17T21:42:08.970Z,45.70
2023-02-17T21:44:53.218Z,44.67
2023-02-17T21:47:26.943Z,45.20
2023-02-17T21:49:56.690Z,46.90
2023-02-17T21:52:26.074Z,41.72
2023-02-17T21:55:06.280Z,44.80
2023-02-17T21:57:37.783Z,51.78
2023-02-17T22:00:42.110Z,51.55
2023-02-17T22:03:29.597Z,47.67
2023-02-17T22:05:58.645Z,43.80
2023-02-17T22:10:54.861Z,63.75
2023-02-17T22:14:07.523Z,52.28
2023-02-17T22:23:12.045Z,54.22
2023-02-17T22:26:20.048Z,53.40
2023-02-17T22:28:51.337Z,50.10
2023-02-17T22:31:23.822Z,59.92
2023-02-17T22:33:55.938Z,61.30
2023-02-17T22:36:27.566Z,63.67
2023-02-17T22:39:18.132Z,67.95
2023-02-17T22:45:06.266Z,70.10
2023-02-17T22:47:35.219Z,80.75
2023-02-17T22:50:28.223Z,70.90
2023-02-17T22:53:15.471Z,62.95
2023-02-17T22:55:55.983Z,59.35
2023-02-17T22:58:27.357Z,49.75
2023-02-17T23:01:08.260Z,45.15
2023-02-17T23:03:40.371Z,53.78
2023-02-17T23:06:13.662Z,58.67
2023-02-17T23:08:43.353Z,64.40
2023-02-17T23:11:15.811Z,54.92
2023-02-17T23:13:45.962Z,49.63
2023-02-17T23:16:31.622Z,50.22
2023-02-17T23:19:08.397Z,54.90
2023-02-17T23:21:40.068Z,53.30
2023-02-17T23:24:10.234Z,47.90
2023-02-17T23:26:44.293Z,48.25
2023-02-17T23:29:31.926Z,44.00
2023-02-17T23:32:05.400Z,48.25
2023-02-17T23:34:38.197Z,54.55
2023-02-17T23:37:10.003Z,49.45
2023-02-17T23:39:39.584Z,44.35
2023-02-17T23:45:14.855Z,44.08
2023-02-17T23:47:48.249Z,38.17
2023-02-17T23:50:20.327Z,42.55
2023-02-17T23:52:49.282Z,38.25
2023-02-17T23:55:18.418Z,38.20
2023-02-17T23:57:47.413Z,39.38
